Avalon, NJ

11:58 PM EDT on March 27, 2015 (GMT -0400)
Avalon, NJ | | Change Station
CLOSE
Current Station
Personal Weather Station
Location: Avalon, NJ
Elevation: 35 ft
Nearby Weather Stations

Elev 35 ft 39.10 °N, 74.72 °W | Updated 47 seconds ago

Overcast
Overcast
40.5 °F
Feels Like 40 °F
N
0.0
Wind Variable Wind from North
Gusts 0.0 mph

Today
High -- | Low -- °F
--% Chance of Precip.
Yesterday
High -- | Low -- °F
Precip. -- in
6:51 AM 7:17 PM
First Quarter, 58% visible
Pressure 29.79 in
Visibility 10.0 miles
Clouds Few 5500 ft
Scattered Clouds 7500 ft
Overcast 8500 ft
Windchill 40 °F
Dew Point 35 °F
Humidity 81%
Rainfall 0.16 in
Snow Depth Not available.
UV 0 out of 12
Pollen 4.90 out of 12
Air Quality Not available.
Flu Activity Not available.
METAR KWWD 280355Z AUTO 35004KT 10SM FEW055 SCT075 OVC085 06/M01 A2979 RMK AO1

More Conditions Fewer Conditions

Pressure 29.79 in
Visibility 10.0 miles
Clouds Few 5500 ft
Scattered Clouds 7500 ft
Overcast 8500 ft
Windchill 40 °F
Dew Point 35 °F
Humidity 81%
Rainfall 0.16 in
Snow Depth Not available.
UV 0 out of 12
Pollen 4.90 out of 12
Air Quality Not available.
Flu Activity Not available.
METAR KWWD 280355Z AUTO 35004KT 10SM FEW055 SCT075 OVC085 06/M01 A2979 RMK AO1

More Conditions Fewer Conditions

10-Day Weather Forecast

Almanac

Astronomy

Mar. 27, 2015 Rise Set
Actual Time
Civil Twilight
Nautical Twilight
Astronomical Twilight
Moon
Length of Visible Light
Length of Day
Tomorrow will be .
, % of the Moon is Illuminated

Today's Extremes

State Highs State Lows

Community

WunderPhotos

Upload Photos

1,808,923 photos uploaded!

WunderBlogs® & News

Nearby

Air Quality

  Air Quality AQ Index Pollutant
Not available.

Snow Depth

Station Depth Elevation

Earthquake Activity

City Distance Mag. Time & Date
Minimum magnitude displayed is 2.5.

Coastal Water Temperatures

Place Temperature

Stations

Nearby Weather Stations

Station Location Temp. Windchill Dew Point Humidity Wind Precip. Elev Updated Type